createdAt,value
2018-05-25T00:00:24.803Z,95.70
2018-05-25T00:02:53.133Z,95.80
2018-05-25T00:05:21.457Z,95.60
2018-05-25T00:07:49.805Z,95.60
2018-05-25T00:10:18.127Z,95.70
2018-05-25T00:12:46.445Z,95.90
2018-05-25T00:15:14.794Z,96.10
2018-05-25T00:17:43.115Z,96.10
2018-05-25T00:20:11.472Z,96.10
2018-05-25T00:22:39.788Z,96.10
2018-05-25T00:25:08.127Z,96.20
2018-05-25T00:27:36.450Z,96.10
2018-05-25T00:30:04.795Z,96.20
2018-05-25T00:32:33.124Z,96.30
2018-05-25T00:35:01.471Z,96.30
2018-05-25T00:37:29.794Z,96.30
2018-05-25T00:39:58.130Z,96.30
2018-05-25T00:42:26.445Z,96.30
2018-05-25T00:44:54.785Z,96.40
2018-05-25T00:47:23.109Z,96.50
2018-05-25T00:49:50.682Z,96.40
2018-05-25T00:52:18.994Z,96.60
2018-05-25T00:54:59.147Z,96.60
2018-05-25T00:57:27.469Z,96.60
2018-05-25T00:59:55.784Z,96.50
2018-05-25T01:02:24.131Z,96.50
2018-05-25T01:04:52.444Z,96.50
2018-05-25T01:07:20.784Z,96.50
2018-05-25T01:09:49.112Z,96.20
2018-05-25T01:12:17.461Z,96.20
2018-05-25T01:14:45.807Z,96.70
2018-05-25T01:17:14.156Z,96.50
2018-05-25T01:19:42.482Z,96.60
2018-05-25T01:22:10.829Z,96.60
2018-05-25T01:24:38.390Z,96.60
2018-05-25T01:27:06.728Z,96.70
2018-05-25T01:29:35.051Z,96.80
2018-05-25T01:32:03.394Z,96.80
2018-05-25T01:34:31.708Z,96.90
2018-05-25T01:37:00.059Z,96.90
2018-05-25T01:39:28.385Z,96.90
2018-05-25T01:41:56.715Z,96.80
2018-05-25T01:44:25.066Z,96.80
2018-05-25T01:46:53.397Z,96.90
2018-05-25T01:49:21.749Z,96.90
2018-05-25T01:51:50.074Z,96.90
2018-05-25T01:54:18.417Z,96.80
2018-05-25T01:56:46.749Z,96.80
2018-05-25T01:59:15.099Z,96.80
2018-05-25T02:01:43.430Z,96.60
2018-05-25T02:04:11.779Z,96.50
2018-05-25T02:06:40.105Z,96.70
2018-05-25T02:09:08.467Z,96.80
2018-05-25T02:11:36.780Z,96.80
2018-05-25T02:14:05.149Z,96.80
2018-05-25T02:16:33.500Z,96.70
2018-05-25T02:19:01.815Z,96.70
2018-05-25T02:21:30.165Z,96.70
2018-05-25T02:23:58.484Z,96.70
2018-05-25T02:26:26.822Z,96.70
2018-05-25T02:28:55.143Z,96.80
2018-05-25T02:31:23.481Z,96.80
2018-05-25T02:33:51.802Z,96.90
2018-05-25T02:36:20.145Z,96.80
2018-05-25T02:38:48.464Z,96.70
2018-05-25T02:41:16.820Z,96.70
2018-05-25T02:43:45.137Z,96.60
2018-05-25T02:46:13.449Z,96.50
2018-05-25T02:48:41.800Z,96.30
2018-05-25T02:51:10.132Z,96.30
2018-05-25T02:53:38.486Z,96.30
2018-05-25T02:56:06.813Z,96.20
2018-05-25T02:58:35.163Z,96.00
2018-05-25T03:01:03.487Z,95.90
2018-05-25T03:03:31.827Z,95.90
2018-05-25T03:06:00.149Z,95.90
2018-05-25T03:08:28.489Z,95.80
2018-05-25T03:10:56.805Z,95.80
2018-05-25T03:13:25.145Z,95.90
2018-05-25T03:15:53.461Z,95.90
2018-05-25T03:18:21.811Z,96.10
2018-05-25T03:20:50.126Z,96.10
2018-05-25T03:23:18.460Z,96.20
2018-05-25T03:25:46.804Z,96.40
2018-05-25T03:28:15.133Z,96.80
2018-05-25T03:30:43.477Z,96.30
2018-05-25T03:33:11.793Z,96.20
2018-05-25T03:35:40.138Z,96.20
2018-05-25T03:38:08.457Z,96.00
2018-05-25T03:40:36.803Z,95.80
2018-05-25T03:43:05.126Z,95.70
2018-05-25T03:45:33.477Z,95.50
2018-05-25T03:48:01.804Z,95.20
2018-05-25T03:50:30.171Z,95.40
2018-05-25T03:52:58.507Z,94.80
2018-05-25T03:55:26.854Z,94.60
2018-05-25T03:57:55.185Z,94.40
2018-05-25T04:00:35.536Z,94.40
2018-05-25T04:03:03.872Z,94.40
2018-05-25T04:05:32.219Z,94.30
2018-05-25T04:08:00.543Z,94.40
2018-05-25T04:10:28.882Z,94.60
2018-05-25T04:12:57.205Z,94.50
2018-05-25T04:15:25.545Z,94.80
2018-05-25T04:17:53.873Z,95.30
2018-05-25T04:20:22.229Z,95.70
2018-05-25T04:22:50.557Z,96.00
2018-05-25T04:25:18.887Z,96.40
2018-05-25T04:27:47.232Z,95.90
2018-05-25T04:30:15.596Z,95.80
2018-05-25T04:32:43.937Z,95.80
2018-05-25T04:35:12.259Z,95.90
2018-05-25T04:37:40.601Z,95.90
2018-05-25T04:40:08.929Z,95.80
2018-05-25T04:42:37.271Z,95.70
2018-05-25T04:45:05.605Z,95.40
2018-05-25T04:47:33.949Z,95.20
2018-05-25T04:50:01.523Z,95.20
2018-05-25T04:52:29.910Z,94.70
2018-05-25T04:54:58.202Z,94.30
2018-05-25T04:57:26.553Z,94.10
2018-05-25T04:59:54.875Z,93.80
2018-05-25T05:02:23.217Z,93.30
2018-05-25T05:04:51.547Z,92.90
2018-05-25T05:07:19.888Z,92.40
2018-05-25T05:09:48.226Z,91.80
2018-05-25T05:12:16.571Z,91.00
2018-05-25T05:14:44.893Z,90.50
2018-05-25T05:17:13.250Z,90.20
2018-05-25T05:19:41.563Z,90.00
2018-05-25T05:22:09.906Z,89.50
2018-05-25T05:24:38.219Z,88.70
2018-05-25T05:27:06.552Z,88.30
2018-05-25T05:29:34.864Z,88.00
2018-05-25T05:32:02.441Z,88.00
2018-05-25T05:34:30.753Z,87.00
2018-05-25T05:36:59.087Z,86.30
2018-05-25T05:39:27.405Z,85.60
2018-05-25T05:41:55.751Z,84.90
2018-05-25T05:44:24.060Z,84.40
2018-05-25T05:46:52.406Z,83.60
2018-05-25T05:49:20.721Z,82.90
2018-05-25T05:51:49.059Z,82.50
2018-05-25T05:54:17.383Z,81.80
2018-05-25T05:56:45.729Z,81.60
2018-05-25T05:59:14.046Z,81.40
2018-05-25T06:01:42.367Z,81.20
2018-05-25T06:04:09.942Z,81.10
2018-05-25T06:06:38.266Z,80.90
2018-05-25T06:09:06.606Z,80.40
2018-05-25T06:11:34.930Z,80.00
2018-05-25T06:14:03.278Z,79.90
2018-05-25T06:16:31.603Z,79.50
2018-05-25T06:18:59.173Z,79.50
2018-05-25T06:21:27.499Z,78.50
2018-05-25T06:23:55.845Z,78.00
2018-05-25T06:26:24.165Z,78.50
2018-05-25T06:28:52.512Z,78.20
2018-05-25T06:31:20.847Z,77.40
2018-05-25T06:33:49.184Z,76.80
2018-05-25T06:36:17.501Z,76.60
2018-05-25T06:38:45.829Z,76.90
2018-05-25T06:41:14.155Z,76.60
2018-05-25T06:43:42.493Z,76.50
2018-05-25T06:46:10.811Z,76.00
2018-05-25T06:48:39.151Z,75.30
2018-05-25T06:51:07.513Z,74.80
2018-05-25T06:53:35.856Z,74.70
2018-05-25T06:56:04.194Z,74.00
2018-05-25T06:58:32.530Z,73.60
2018-05-25T07:01:00.883Z,72.80
2018-05-25T07:03:29.240Z,72.10
2018-05-25T07:05:57.561Z,71.80
2018-05-25T07:08:25.903Z,71.70
2018-05-25T07:10:54.210Z,70.30
2018-05-25T07:13:22.546Z,68.20
2018-05-25T07:15:50.863Z,66.80
2018-05-25T07:18:19.202Z,66.40
2018-05-25T07:20:47.513Z,65.30
2018-05-25T07:23:15.853Z,63.50
2018-05-25T07:25:44.167Z,60.20
2018-05-25T07:28:12.498Z,59.60
2018-05-25T07:30:40.822Z,59.60
2018-05-25T07:33:09.158Z,58.80
2018-05-25T07:35:37.477Z,57.10
2018-05-25T07:38:05.819Z,57.00
2018-05-25T07:40:34.154Z,56.60
2018-05-25T07:43:02.474Z,55.80
2018-05-25T07:45:30.808Z,55.80
2018-05-25T07:47:59.124Z,55.10
2018-05-25T07:50:30.267Z,53.90
2018-05-25T07:52:58.578Z,52.60
2018-05-25T07:55:26.914Z,51.90
2018-05-25T07:57:55.229Z,50.90
2018-05-25T08:00:23.633Z,51.00
2018-05-25T08:02:51.145Z,51.00
2018-05-25T08:05:19.473Z,49.80
2018-05-25T08:07:47.053Z,49.80
2018-05-25T08:10:15.422Z,49.50
2018-05-25T08:12:43.743Z,47.90
2018-05-25T08:15:12.079Z,47.30
2018-05-25T08:17:40.381Z,47.80
2018-05-25T08:20:07.958Z,47.70
2018-05-25T08:22:36.294Z,48.70
2018-05-25T08:25:04.971Z,48.80
2018-05-25T08:27:33.282Z,48.80
2018-05-25T08:30:00.860Z,48.80
2018-05-25T08:32:29.177Z,48.10
2018-05-25T08:34:57.544Z,47.10
2018-05-25T08:37:25.865Z,46.30
2018-05-25T08:39:54.212Z,46.40
2018-05-25T08:42:22.530Z,47.30
2018-05-25T08:44:50.856Z,48.00
2018-05-25T08:47:19.177Z,48.40
2018-05-25T08:49:47.510Z,48.20
2018-05-25T08:52:15.822Z,49.50
2018-05-25T08:54:44.156Z,50.50
2018-05-25T08:57:12.470Z,51.10
2018-05-25T08:59:40.810Z,51.00
2018-05-25T09:02:07.897Z,51.00
2018-05-25T09:04:35.473Z,50.60
2018-05-25T09:07:03.795Z,50.70
2018-05-25T09:09:32.139Z,51.20
2018-05-25T09:11:59.697Z,51.20
2018-05-25T09:14:28.043Z,50.60
2018-05-25T09:16:56.349Z,50.10
2018-05-25T09:19:24.663Z,49.30
2018-05-25T09:21:53.110Z,50.20
2018-05-25T09:24:21.340Z,51.00
2018-05-25T09:26:49.689Z,50.30
2018-05-25T09:29:17.237Z,50.30
2018-05-25T09:31:45.576Z,47.50
2018-05-25T09:34:13.885Z,47.00
2018-05-25T09:36:42.222Z,46.30
2018-05-25T09:39:10.534Z,45.80
2018-05-25T09:41:38.858Z,44.20
2018-05-25T09:44:07.178Z,43.50
2018-05-25T09:46:35.522Z,43.30
2018-05-25T09:49:03.846Z,43.80
2018-05-25T09:51:32.186Z,43.70
2018-05-25T09:54:00.507Z,45.00
2018-05-25T09:56:28.855Z,45.80
2018-05-25T09:58:57.171Z,47.20
2018-05-25T10:01:25.509Z,48.30
2018-05-25T10:03:53.826Z,48.10
2018-05-25T10:06:22.163Z,46.60
2018-05-25T10:08:50.486Z,46.60
2018-05-25T10:11:18.846Z,46.00
2018-05-25T10:13:47.157Z,45.20
2018-05-25T10:16:15.504Z,44.70
2018-05-25T10:18:43.828Z,43.40
2018-05-25T10:21:12.203Z,43.00
2018-05-25T10:23:40.536Z,42.50
2018-05-25T10:26:08.881Z,42.10
2018-05-25T10:28:37.211Z,42.20
2018-05-25T10:31:05.551Z,41.70
2018-05-25T10:33:33.886Z,41.50
2018-05-25T10:36:02.214Z,41.40
2018-05-25T10:38:30.536Z,39.50
2018-05-25T10:40:58.143Z,39.50
2018-05-25T10:43:26.446Z,40.20
2018-05-25T10:45:54.785Z,40.40
2018-05-25T10:48:23.101Z,41.40
2018-05-25T10:50:51.434Z,41.70
2018-05-25T10:53:19.763Z,40.00
2018-05-25T10:55:48.080Z,40.30
2018-05-25T10:58:16.416Z,40.40
2018-05-25T11:00:44.738Z,40.60
2018-05-25T11:03:13.074Z,41.20
2018-05-25T11:05:41.394Z,41.50
2018-05-25T11:08:09.730Z,41.20
2018-05-25T11:10:38.048Z,41.00
2018-05-25T11:13:06.381Z,41.00
2018-05-25T11:15:34.698Z,41.90
2018-05-25T11:18:03.030Z,43.00
2018-05-25T11:20:31.348Z,45.00
2018-05-25T11:22:59.684Z,45.20
2018-05-25T11:25:27.998Z,45.40
2018-05-25T11:27:56.333Z,45.60
2018-05-25T11:30:24.650Z,45.50
2018-05-25T11:32:52.998Z,46.20
2018-05-25T11:35:21.302Z,46.70
2018-05-25T11:37:49.643Z,46.10
2018-05-25T11:40:17.957Z,45.60
2018-05-25T11:42:46.294Z,45.80
2018-05-25T11:45:14.599Z,45.10
2018-05-25T11:47:42.926Z,43.90
2018-05-25T11:50:11.259Z,43.00
2018-05-25T11:52:39.603Z,42.60
2018-05-25T11:55:07.916Z,42.60
2018-05-25T11:57:36.249Z,42.60
2018-05-25T12:00:04.563Z,42.30
2018-05-25T12:02:32.917Z,42.00
2018-05-25T12:05:01.237Z,41.50
2018-05-25T12:07:29.576Z,40.20
2018-05-25T12:09:57.893Z,40.70
2018-05-25T12:12:26.237Z,39.80
2018-05-25T12:14:54.556Z,40.70
2018-05-25T12:17:22.886Z,41.00
2018-05-25T12:19:51.198Z,39.90
2018-05-25T12:22:19.535Z,40.40
2018-05-25T12:24:47.082Z,40.40
2018-05-25T12:27:15.410Z,40.40
2018-05-25T12:29:43.724Z,40.90
2018-05-25T12:32:12.065Z,41.80
2018-05-25T12:34:40.369Z,42.20
2018-05-25T12:37:08.695Z,42.60
2018-05-25T12:39:37.041Z,42.60
2018-05-25T12:42:05.359Z,42.80
2018-05-25T12:44:55.177Z,43.80
2018-05-25T12:47:23.524Z,43.70
2018-05-25T12:49:51.843Z,43.70
2018-05-25T12:52:20.161Z,43.00
2018-05-25T12:54:48.501Z,43.00
2018-05-25T12:57:16.817Z,43.60
2018-05-25T12:59:45.165Z,44.10
2018-05-25T13:02:13.474Z,43.10
2018-05-25T13:04:41.812Z,42.90
2018-05-25T13:07:10.123Z,42.90
2018-05-25T13:09:38.472Z,43.90
2018-05-25T13:12:06.784Z,44.90
2018-05-25T13:14:35.125Z,45.80
2018-05-25T13:17:03.438Z,46.60
2018-05-25T13:19:31.805Z,45.60
2018-05-25T13:22:00.116Z,44.30
2018-05-25T13:24:27.691Z,44.30
2018-05-25T13:26:55.997Z,44.70
2018-05-25T13:29:24.338Z,44.60
2018-05-25T13:31:52.657Z,43.90
2018-05-25T13:34:21.015Z,43.50
2018-05-25T13:36:49.327Z,44.10
2018-05-25T13:39:17.666Z,43.70
2018-05-25T13:41:45.978Z,43.30
2018-05-25T13:44:14.323Z,42.90
2018-05-25T13:46:42.642Z,42.80
2018-05-25T13:49:10.990Z,43.10
2018-05-25T13:51:39.313Z,43.10
2018-05-25T13:54:07.655Z,43.10
2018-05-25T13:56:35.971Z,43.90
2018-05-25T13:59:04.312Z,44.20
2018-05-25T14:01:32.636Z,43.40
2018-05-25T14:04:00.982Z,43.40
2018-05-25T14:06:29.294Z,44.40
2018-05-25T14:08:57.637Z,44.90
2018-05-25T14:11:25.980Z,45.60
2018-05-25T14:13:54.309Z,45.50
2018-05-25T14:16:22.621Z,45.50
2018-05-25T14:18:50.968Z,44.50
2018-05-25T14:21:19.313Z,43.00
2018-05-25T14:23:47.629Z,42.30
2018-05-25T14:26:15.992Z,42.60
2018-05-25T14:28:44.313Z,43.50
2018-05-25T14:31:12.660Z,43.80
2018-05-25T14:33:40.217Z,43.80
2018-05-25T14:36:08.558Z,44.80
2018-05-25T14:38:36.887Z,44.80
2018-05-25T14:41:05.227Z,44.80
2018-05-25T14:43:32.761Z,44.80
2018-05-25T14:46:01.135Z,47.00
2018-05-25T14:48:29.459Z,46.80
2018-05-25T14:50:57.799Z,46.70
2018-05-25T14:53:26.130Z,46.70
2018-05-25T14:55:54.475Z,47.30
2018-05-25T14:58:22.803Z,48.30
2018-05-25T15:00:51.151Z,48.60
2018-05-25T15:03:19.493Z,48.10
2018-05-25T15:05:47.827Z,48.30
2018-05-25T15:08:16.140Z,48.60
2018-05-25T15:10:44.484Z,48.80
2018-05-25T15:13:12.813Z,48.60
2018-05-25T15:15:41.158Z,48.20
2018-05-25T15:18:09.497Z,48.20
2018-05-25T15:20:37.837Z,46.90
2018-05-25T15:23:06.173Z,45.00
2018-05-25T15:25:34.511Z,44.00
2018-05-25T15:28:02.830Z,43.20
2018-05-25T15:30:31.166Z,42.10
2018-05-25T15:32:59.473Z,43.00
2018-05-25T15:35:27.809Z,44.20
2018-05-25T15:37:56.127Z,43.50
2018-05-25T15:40:24.458Z,43.40
2018-05-25T15:42:52.773Z,43.60
2018-05-25T15:45:21.118Z,44.50
2018-05-25T15:47:49.432Z,44.60
2018-05-25T15:50:17.762Z,45.50
2018-05-25T15:52:46.113Z,45.70
2018-05-25T15:55:14.457Z,46.50
2018-05-25T15:57:42.770Z,47.10
2018-05-25T16:00:11.080Z,47.20
2018-05-25T16:02:39.419Z,47.60
2018-05-25T16:05:07.738Z,47.20
2018-05-25T16:07:36.081Z,47.20
2018-05-25T16:10:04.385Z,47.20
2018-05-25T16:12:32.763Z,47.10
2018-05-25T16:15:01.076Z,46.90
2018-05-25T16:17:29.425Z,46.90
2018-05-25T16:19:57.751Z,46.60
2018-05-25T16:22:26.084Z,47.10
2018-05-25T16:24:54.402Z,47.80
2018-05-25T16:27:22.748Z,48.40
2018-05-25T16:29:51.077Z,48.70
2018-05-25T16:32:19.415Z,49.30
2018-05-25T16:34:47.770Z,49.40
2018-05-25T16:37:16.119Z,49.60
2018-05-25T16:39:44.466Z,49.90
2018-05-25T16:42:12.823Z,50.40
2018-05-25T16:44:41.210Z,50.70
2018-05-25T16:47:09.555Z,51.00
2018-05-25T16:49:37.888Z,51.40
2018-05-25T16:52:06.225Z,51.90
2018-05-25T16:54:34.557Z,52.30
2018-05-25T16:57:02.906Z,53.10
2018-05-25T16:59:31.231Z,53.20
2018-05-25T17:01:59.584Z,53.20
2018-05-25T17:04:27.901Z,53.00
2018-05-25T17:06:56.241Z,53.00
2018-05-25T17:09:24.553Z,53.20
2018-05-25T17:11:52.937Z,53.40
2018-05-25T17:14:21.262Z,53.30
2018-05-25T17:16:49.596Z,52.70
2018-05-25T17:19:17.192Z,52.60
2018-05-25T17:21:45.531Z,50.70
2018-05-25T17:24:13.927Z,50.90
2018-05-25T17:26:42.263Z,51.40
2018-05-25T17:29:10.570Z,52.30
2018-05-25T17:31:38.914Z,52.70
2018-05-25T17:34:07.233Z,53.80
2018-05-25T17:36:35.630Z,54.10
2018-05-25T17:39:03.943Z,53.90
2018-05-25T17:41:32.285Z,52.90
2018-05-25T17:44:00.614Z,50.90
2018-05-25T17:46:28.938Z,50.20
2018-05-25T17:48:57.268Z,50.50
2018-05-25T17:51:25.583Z,51.40
2018-05-25T17:53:53.930Z,52.30
2018-05-25T17:56:22.256Z,52.90
2018-05-25T17:58:50.589Z,53.60
2018-05-25T18:01:18.894Z,54.20
2018-05-25T18:03:47.236Z,54.80
2018-05-25T18:06:15.559Z,55.10
2018-05-25T18:08:43.894Z,55.40
2018-05-25T18:11:12.212Z,56.00
2018-05-25T18:13:40.589Z,56.30
2018-05-25T18:16:08.901Z,56.50
2018-05-25T18:18:37.233Z,57.00
2018-05-25T18:21:05.555Z,57.40
2018-05-25T18:23:33.917Z,57.90
2018-05-25T18:26:02.299Z,58.30
2018-05-25T18:28:30.646Z,59.00
2018-05-25T18:30:59.034Z,59.50
2018-05-25T18:33:27.377Z,60.00
2018-05-25T18:35:55.698Z,60.70
2018-05-25T18:38:24.054Z,61.20
2018-05-25T18:40:52.387Z,61.80
2018-05-25T18:43:20.735Z,62.30
2018-05-25T18:45:49.056Z,62.10
2018-05-25T18:48:17.416Z,62.60
2018-05-25T18:50:45.770Z,63.40
2018-05-25T18:53:14.147Z,63.50
2018-05-25T18:55:42.469Z,64.20
2018-05-25T18:58:10.809Z,64.60
2018-05-25T19:00:39.275Z,65.20
2018-05-25T19:03:06.846Z,65.20
2018-05-25T19:05:35.170Z,66.00
2018-05-25T19:08:03.510Z,66.70
2018-05-25T19:10:31.837Z,67.30
2018-05-25T19:13:00.647Z,67.70
2018-05-25T19:15:29.006Z,68.30
2018-05-25T19:17:57.546Z,69.40
2018-05-25T19:20:26.009Z,70.50
2018-05-25T19:22:54.530Z,71.40
2018-05-25T19:25:22.869Z,71.70
2018-05-25T19:27:51.277Z,72.20
2018-05-25T19:30:19.805Z,72.70
2018-05-25T19:32:48.132Z,73.30
2018-05-25T19:35:16.590Z,73.70
2018-05-25T19:37:44.910Z,74.60
2018-05-25T19:40:13.245Z,75.20
2018-05-25T19:42:41.584Z,75.60
2018-05-25T19:45:09.948Z,76.30
2018-05-25T19:47:38.289Z,76.90
2018-05-25T19:50:06.634Z,77.20
2018-05-25T19:52:34.216Z,77.20
2018-05-25T19:55:02.655Z,78.00
2018-05-25T19:57:30.997Z,78.70
2018-05-25T19:59:59.338Z,79.40
2018-05-25T20:02:27.668Z,80.00
2018-05-25T20:04:56.061Z,80.50
2018-05-25T20:07:24.369Z,81.10
2018-05-25T20:09:52.714Z,81.10
2018-05-25T20:12:21.051Z,81.40
2018-05-25T20:14:49.445Z,81.90
2018-05-25T20:17:17.895Z,82.50
2018-05-25T20:19:45.466Z,82.50
2018-05-25T20:22:13.781Z,83.20
2018-05-25T20:24:42.117Z,83.70
2018-05-25T20:27:10.441Z,83.80
2018-05-25T20:29:38.774Z,84.20
2018-05-25T20:32:07.095Z,84.80
2018-05-25T20:34:35.434Z,85.70
2018-05-25T20:37:03.773Z,86.20
2018-05-25T20:39:32.104Z,86.60
2018-05-25T20:42:00.412Z,86.70
2018-05-25T20:44:28.740Z,86.70
2018-05-25T20:46:57.056Z,87.30
2018-05-25T20:49:25.384Z,88.60
2018-05-25T20:51:53.701Z,88.30
2018-05-25T20:54:22.037Z,88.60
2018-05-25T20:56:50.347Z,89.70
2018-05-25T20:59:18.669Z,89.60
2018-05-25T21:01:47.005Z,89.90
2018-05-25T21:04:15.324Z,90.10
2018-05-25T21:06:43.656Z,90.10
2018-05-25T21:09:11.976Z,90.10
2018-05-25T21:11:40.314Z,90.00
2018-05-25T21:14:08.633Z,90.20
2018-05-25T21:16:36.969Z,90.30
2018-05-25T21:19:05.294Z,90.30
2018-05-25T21:21:33.646Z,90.20
2018-05-25T21:24:01.979Z,90.20
2018-05-25T21:26:30.330Z,90.20
2018-05-25T21:28:58.641Z,90.40
2018-05-25T21:31:26.989Z,90.50
2018-05-25T21:33:54.546Z,90.50
2018-05-25T21:36:22.885Z,91.20
2018-05-25T21:38:51.211Z,90.70
2018-05-25T21:41:19.555Z,90.80
2018-05-25T21:43:47.869Z,90.80
2018-05-25T21:46:16.217Z,90.70
2018-05-25T21:48:44.546Z,90.70
2018-05-25T21:51:12.889Z,91.00
2018-05-25T21:53:41.210Z,90.60
2018-05-25T21:56:09.558Z,90.80
2018-05-25T21:58:37.880Z,90.80
2018-05-25T22:01:06.233Z,90.90
2018-05-25T22:03:34.558Z,90.90
2018-05-25T22:06:02.889Z,90.90
2018-05-25T22:08:31.206Z,91.00
2018-05-25T22:10:59.570Z,91.00
2018-05-25T22:13:27.886Z,91.00
2018-05-25T22:15:56.196Z,91.00
2018-05-25T22:18:24.543Z,91.00
2018-05-25T22:20:52.868Z,91.00
2018-05-25T22:23:21.210Z,90.90
2018-05-25T22:25:49.529Z,90.90
2018-05-25T22:28:17.104Z,90.90
2018-05-25T22:30:45.428Z,91.50
2018-05-25T22:33:13.769Z,91.50
2018-05-25T22:35:42.086Z,91.30
2018-05-25T22:38:10.425Z,91.40
2018-05-25T22:40:38.750Z,91.50
2018-05-25T22:43:18.950Z,91.60
2018-05-25T22:45:58.969Z,91.60
2018-05-25T22:48:39.130Z,91.70
2018-05-25T22:51:19.202Z,91.90
2018-05-25T22:53:52.575Z,92.20
2018-05-25T22:56:20.903Z,92.60
2018-05-25T22:58:49.264Z,92.80
2018-05-25T23:01:17.581Z,92.70
2018-05-25T23:03:45.899Z,92.50
2018-05-25T23:06:14.235Z,92.30
2018-05-25T23:08:42.547Z,92.30
2018-05-25T23:11:10.882Z,92.30
2018-05-25T23:13:39.198Z,92.20
2018-05-25T23:16:07.541Z,92.10
2018-05-25T23:18:35.918Z,92.20
2018-05-25T23:21:04.222Z,92.30
2018-05-25T23:23:32.536Z,92.30
2018-05-25T23:26:00.870Z,92.30
2018-05-25T23:28:29.189Z,92.30
2018-05-25T23:30:57.509Z,92.50
2018-05-25T23:33:25.841Z,92.50
2018-05-25T23:35:54.172Z,92.60
2018-05-25T23:38:22.513Z,92.60
2018-05-25T23:40:50.834Z,92.40
2018-05-25T23:43:19.179Z,92.40
2018-05-25T23:45:47.502Z,92.40
2018-05-25T23:48:15.837Z,92.60
2018-05-25T23:50:44.150Z,92.60
2018-05-25T23:53:12.486Z,92.60
2018-05-25T23:55:40.803Z,93.10
2018-05-25T23:58:09.146Z,92.80
